createdAt,value
2022-08-30T00:03:47.518Z,13.50
2022-08-30T00:08:50.606Z,15.27
2022-08-30T00:13:54.375Z,10.73
2022-08-30T00:18:56.510Z,10.10
2022-08-30T00:23:58.452Z,9.73
2022-08-30T00:29:00.358Z,9.63
2022-08-30T00:34:02.227Z,9.63
2022-08-30T00:39:05.452Z,9.02
2022-08-30T00:44:08.012Z,9.68
2022-08-30T00:49:12.876Z,10.10
2022-08-30T00:54:15.195Z,9.38
2022-08-30T00:59:17.656Z,9.23
2022-08-30T01:04:21.945Z,9.73
2022-08-30T01:09:24.303Z,10.10
2022-08-30T01:14:26.359Z,10.20
2022-08-30T01:19:50.419Z,9.40
2022-08-30T01:24:55.119Z,10.20
2022-08-30T01:29:58.151Z,10.50
2022-08-30T01:34:59.997Z,10.75
2022-08-30T01:40:02.116Z,10.93
2022-08-30T01:45:05.342Z,9.38
2022-08-30T01:50:08.394Z,9.60
2022-08-30T01:55:10.703Z,10.75
2022-08-30T02:00:13.479Z,10.80
2022-08-30T02:05:16.079Z,10.88
2022-08-30T02:10:17.948Z,10.25
2022-08-30T02:15:19.802Z,12.23
2022-08-30T02:20:21.801Z,12.40
2022-08-30T02:25:23.547Z,11.30
2022-08-30T02:30:25.426Z,11.52
2022-08-30T02:35:27.562Z,12.35
2022-08-30T02:40:29.506Z,11.93
2022-08-30T02:45:31.671Z,11.25
2022-08-30T02:50:33.683Z,11.30
2022-08-30T02:55:35.607Z,11.30
2022-08-30T03:00:38.202Z,11.35
2022-08-30T03:05:40.023Z,12.23
2022-08-30T03:10:44.002Z,11.50
2022-08-30T03:15:45.796Z,12.02
2022-08-30T03:20:54.131Z,11.07
2022-08-30T03:25:57.430Z,11.75
2022-08-30T03:30:59.258Z,12.32
2022-08-30T03:36:01.274Z,12.82
2022-08-30T03:41:04.545Z,13.10
2022-08-30T03:46:07.821Z,14.23
2022-08-30T03:51:09.840Z,15.10
2022-08-30T03:56:11.624Z,15.07
2022-08-30T04:01:13.506Z,13.18
2022-08-30T04:06:15.706Z,14.57
2022-08-30T04:11:17.516Z,15.75
2022-08-30T04:16:19.984Z,14.30
2022-08-30T04:21:21.884Z,14.50
2022-08-30T04:26:23.972Z,16.95
2022-08-30T04:31:31.490Z,17.90
2022-08-30T04:36:33.460Z,19.48
2022-08-30T04:41:36.876Z,17.95
2022-08-30T04:46:44.347Z,18.17
2022-08-30T04:51:46.747Z,20.87
2022-08-30T04:56:48.611Z,21.83
2022-08-30T05:01:50.455Z,19.20
2022-08-30T05:06:52.930Z,14.15
2022-08-30T05:11:55.057Z,14.20
2022-08-30T05:16:56.858Z,14.82
2022-08-30T05:21:58.637Z,16.35
2022-08-30T05:27:00.424Z,14.52
2022-08-30T05:32:02.487Z,18.63
2022-08-30T05:37:04.428Z,15.07
2022-08-30T05:42:06.388Z,14.98
2022-08-30T05:47:08.159Z,12.88
2022-08-30T05:52:10.318Z,11.57
2022-08-30T05:57:12.269Z,16.25
2022-08-30T06:02:14.507Z,10.85
2022-08-30T06:07:18.001Z,12.63
2022-08-30T06:12:23.151Z,10.85
2022-08-30T06:17:24.968Z,10.52
2022-08-30T06:22:26.815Z,9.43
2022-08-30T06:27:28.582Z,9.10
2022-08-30T06:32:30.371Z,8.80
2022-08-30T06:37:33.115Z,10.32
2022-08-30T06:42:34.954Z,10.88
2022-08-30T06:47:36.778Z,15.60
2022-08-30T06:52:39.786Z,13.35
2022-08-30T06:57:41.908Z,8.98
2022-08-30T07:02:43.843Z,5.78
2022-08-30T07:07:45.718Z,5.10
2022-08-30T07:12:48.173Z,6.38
2022-08-30T07:18:08.792Z,48.15
2022-08-30T07:23:11.367Z,9.25
2022-08-30T07:28:13.448Z,5.75
2022-08-30T07:33:15.264Z,5.05
2022-08-30T07:38:17.086Z,4.47
2022-08-30T07:43:19.189Z,9.85
2022-08-30T07:48:21.124Z,7.65
2022-08-30T07:53:23.700Z,5.13
2022-08-30T07:58:25.546Z,5.68
2022-08-30T08:03:27.457Z,3.85
2022-08-30T08:08:29.404Z,3.30
2022-08-30T08:13:32.897Z,3.30
2022-08-30T08:18:47.039Z,3.38
2022-08-30T08:23:48.957Z,2.85
2022-08-30T08:28:50.789Z,3.25
2022-08-30T08:33:52.809Z,3.25
2022-08-30T08:38:54.671Z,3.30
2022-08-30T08:43:56.551Z,4.28
2022-08-30T08:49:03.755Z,3.92
2022-08-30T08:54:14.453Z,4.30
2022-08-30T08:59:16.854Z,4.57
2022-08-30T09:04:25.258Z,3.85
2022-08-30T09:09:32.460Z,3.40
2022-08-30T09:14:55.886Z,3.90
2022-08-30T09:20:01.260Z,3.65
2022-08-30T09:25:30.945Z,3.60
2022-08-30T09:30:34.120Z,3.97
2022-08-30T09:35:35.965Z,3.63
2022-08-30T09:40:49.728Z,4.50
2022-08-30T09:46:00.300Z,3.70
2022-08-30T09:51:05.902Z,3.17
2022-08-30T09:56:18.720Z,2.80
2022-08-30T10:01:39.713Z,2.60
2022-08-30T10:07:00.007Z,2.28
2022-08-30T10:12:36.562Z,3.05
2022-08-30T10:17:45.766Z,2.70
2022-08-30T10:22:58.617Z,2.80
2022-08-30T10:28:22.836Z,3.20
2022-08-30T10:33:35.843Z,2.63
2022-08-30T10:38:41.014Z,2.60
2022-08-30T10:44:01.118Z,2.72
2022-08-30T10:49:08.971Z,1.75
2022-08-30T10:54:15.611Z,2.17
2022-08-30T10:59:21.382Z,1.70
2022-08-30T11:04:45.452Z,2.03
2022-08-30T11:09:50.339Z,1.58
2022-08-30T11:14:53.237Z,1.20
2022-08-30T11:19:58.567Z,1.52
2022-08-30T11:25:57.621Z,1.20
2022-08-30T11:31:08.947Z,1.23
2022-08-30T11:36:37.491Z,1.70
2022-08-30T11:41:46.178Z,1.30
2022-08-30T11:46:55.055Z,1.30
2022-08-30T11:52:27.102Z,1.20
2022-08-30T11:57:50.133Z,1.60
2022-08-30T12:03:00.186Z,1.17
2022-08-30T12:08:03.156Z,1.00
2022-08-30T12:13:05.134Z,1.83
2022-08-30T12:18:28.530Z,1.00
2022-08-30T12:23:44.645Z,1.42
2022-08-30T12:28:49.103Z,1.50
2022-08-30T12:33:58.838Z,1.38
2022-08-30T12:39:15.427Z,1.50
2022-08-30T12:44:26.791Z,1.30
2022-08-30T12:49:32.259Z,1.30
2022-08-30T12:54:34.127Z,1.20
2022-08-30T12:59:56.814Z,2.10
2022-08-30T13:05:48.230Z,4.03
2022-08-30T13:11:07.907Z,1.80
2022-08-30T13:16:38.306Z,2.72
2022-08-30T13:21:55.799Z,2.72
2022-08-30T13:27:03.735Z,4.25
2022-08-30T13:32:05.697Z,7.73
2022-08-30T13:37:44.183Z,11.40
2022-08-30T13:42:32.453Z,7.90
2022-08-30T13:47:35.285Z,5.90
2022-08-30T13:52:38.501Z,4.72
2022-08-30T13:57:57.293Z,6.90
2022-08-30T14:03:00.200Z,7.57
2022-08-30T14:08:02.461Z,7.15
2022-08-30T14:13:09.006Z,11.25
2022-08-30T14:18:13.577Z,13.75
2022-08-30T14:23:19.001Z,11.60
2022-08-30T14:28:21.456Z,8.40
2022-08-30T14:33:23.814Z,3.30
2022-08-30T14:38:25.857Z,4.03
2022-08-30T14:43:27.714Z,2.63
2022-08-30T14:48:29.712Z,3.20
2022-08-30T14:53:32.239Z,6.35
2022-08-30T14:58:34.479Z,8.02
2022-08-30T15:03:38.205Z,8.38
2022-08-30T15:08:40.596Z,4.55
2022-08-30T15:13:44.696Z,4.55
2022-08-30T15:18:47.267Z,1.85
2022-08-30T15:23:49.555Z,1.83
2022-08-30T15:28:51.914Z,1.80
2022-08-30T15:33:53.938Z,7.63
2022-08-30T15:38:56.832Z,2.28
2022-08-30T15:43:59.684Z,2.60
2022-08-30T15:49:09.092Z,2.50
2022-08-30T15:54:13.062Z,3.60
2022-08-30T15:59:15.580Z,2.20
2022-08-30T16:04:18.661Z,2.13
2022-08-30T16:09:20.885Z,2.40
2022-08-30T16:14:22.667Z,2.10
2022-08-30T16:19:24.568Z,1.30
2022-08-30T16:24:26.979Z,1.80
2022-08-30T16:29:28.812Z,1.70
2022-08-30T16:34:31.555Z,1.70
2022-08-30T16:39:35.306Z,1.60
2022-08-30T16:44:37.079Z,1.83
2022-08-30T16:49:39.967Z,1.30
2022-08-30T16:54:41.796Z,1.30
2022-08-30T16:59:44.503Z,1.60
2022-08-30T17:04:49.796Z,1.75
2022-08-30T17:09:54.227Z,2.53
2022-08-30T17:14:56.494Z,5.72
2022-08-30T17:19:58.305Z,2.30
2022-08-30T17:25:00.589Z,2.72
2022-08-30T17:30:03.228Z,2.80
2022-08-30T17:35:06.214Z,3.05
2022-08-30T17:40:14.399Z,2.75
2022-08-30T17:45:17.520Z,2.40
2022-08-30T17:50:19.617Z,2.38
2022-08-30T17:55:21.747Z,3.03
2022-08-30T18:00:23.936Z,3.00
2022-08-30T18:05:26.204Z,2.50
2022-08-30T18:10:32.947Z,2.10
2022-08-30T18:15:34.908Z,1.92
2022-08-30T18:20:36.697Z,2.00
2022-08-30T18:25:38.759Z,2.50
2022-08-30T18:30:41.562Z,1.67
2022-08-30T18:35:48.450Z,1.90
2022-08-30T18:40:52.686Z,3.10
2022-08-30T18:45:54.732Z,2.58
2022-08-30T18:50:56.502Z,1.80
2022-08-30T18:55:58.285Z,1.95
2022-08-30T19:01:00.359Z,1.88
2022-08-30T19:06:07.665Z,3.30
2022-08-30T19:11:09.587Z,3.22
2022-08-30T19:16:12.555Z,2.75
2022-08-30T19:21:15.163Z,2.88
2022-08-30T19:26:19.226Z,2.67
2022-08-30T19:31:20.997Z,2.78
2022-08-30T19:36:22.954Z,2.92
2022-08-30T19:41:24.886Z,3.45
2022-08-30T19:46:26.663Z,1.90
2022-08-30T19:51:28.569Z,1.70
2022-08-30T19:56:30.597Z,1.80
2022-08-30T20:01:34.014Z,2.42
2022-08-30T20:06:36.158Z,2.58
2022-08-30T20:11:39.095Z,3.08
2022-08-30T20:16:42.361Z,3.70
2022-08-30T20:21:47.907Z,3.45
2022-08-30T20:26:51.973Z,3.72
2022-08-30T20:31:53.780Z,2.88
2022-08-30T20:36:56.867Z,3.00
2022-08-30T20:41:58.669Z,3.30
2022-08-30T20:47:01.706Z,3.67
2022-08-30T20:52:04.890Z,4.07
2022-08-30T20:57:07.143Z,4.38
2022-08-30T21:02:09.073Z,4.22
2022-08-30T21:07:12.728Z,4.35
2022-08-30T21:12:14.618Z,2.33
2022-08-30T21:17:16.432Z,2.95
2022-08-30T21:22:18.235Z,2.85
2022-08-30T21:27:21.357Z,2.70
2022-08-30T21:32:23.239Z,3.38
2022-08-30T21:37:25.383Z,4.38
2022-08-30T21:42:27.739Z,3.50
2022-08-30T21:47:29.519Z,2.60
2022-08-30T21:52:31.378Z,2.67
2022-08-30T21:57:33.227Z,2.40
2022-08-30T22:02:35.081Z,1.67
2022-08-30T22:07:37.438Z,1.80
2022-08-30T22:12:39.865Z,1.80
2022-08-30T22:17:43.656Z,1.58
2022-08-30T22:22:45.664Z,1.40
2022-08-30T22:27:47.435Z,1.60
2022-08-30T22:32:49.497Z,1.45
2022-08-30T22:37:53.725Z,1.45
2022-08-30T22:42:55.627Z,1.70
2022-08-30T22:47:58.077Z,2.00
2022-08-30T22:52:59.899Z,2.67
2022-08-30T22:58:01.788Z,2.90
2022-08-30T23:03:04.463Z,2.58
2022-08-30T23:08:06.686Z,2.40
2022-08-30T23:13:08.489Z,2.00
2022-08-30T23:18:10.520Z,2.22
2022-08-30T23:23:30.943Z,2.22
2022-08-30T23:28:51.364Z,2.67
2022-08-30T23:34:11.985Z,2.78
2022-08-30T23:39:32.366Z,4.82
2022-08-30T23:44:52.786Z,3.35
2022-08-30T23:50:13.402Z,2.92
2022-08-30T23:55:34.027Z,2.80
